Time;durP1;ratioP1;P1;durP2;ratioP2;P2;SDS_P1;SDS_P2;PMS_P1;PMS_P2;Temp;Humidity;BMP_temperature;BMP_pressure;BME280_temperature;BME280_humidity;BME280_pressure;Samples;Min_cycle;Max_cycle;Signal;HPM_P1;HPM_P2
2022/09/13 00:01:16;;;;;;;9.23;5.55;;;;;;;10.79;74.61;93252.13;5070723;28;20471;-34
2022/09/13 00:03:41;;;;;;;5.65;5.15;;;;;;;10.77;74.87;93258.19;5070501;28;20024;-34
2022/09/13 00:06:09;;;;;;;5.18;4.68;;;;;;;10.88;74.65;93257.81;5070742;28;20447;-34
2022/09/13 00:08:34;;;;;;;7.35;5.13;;;;;;;10.86;74.33;93254.13;5070697;28;20024;-35
2022/09/13 00:11:00;;;;;;;5.38;4.85;;;;;;;10.79;74.24;93250.09;5070234;28;20385;-34
2022/09/13 00:13:25;;;;;;;5.05;4.32;;;;;;;10.85;74.01;93247.16;5070697;28;20180;-34
2022/09/13 00:15:51;;;;;;;5.70;4.30;;;;;;;10.75;74.21;93230.41;5070201;28;20107;-34
2022/09/13 00:18:17;;;;;;;5.63;4.75;;;;;;;10.64;74.80;93239.81;5052545;28;20059;-34
2022/09/13 00:20:43;;;;;;;5.18;4.10;;;;;;;10.54;75.49;93238.16;5070147;28;20024;-34
2022/09/13 00:23:08;;;;;;;5.85;4.75;;;;;;;10.60;74.93;93236.69;5070425;28;20038;-34
2022/09/13 00:25:34;;;;;;;5.97;4.70;;;;;;;10.63;74.47;93238.31;5069709;28;20024;-34
2022/09/13 00:28:00;;;;;;;6.47;4.75;;;;;;;10.61;74.66;93238.16;5075435;28;20086;-34
2022/09/13 00:30:26;;;;;;;6.53;4.65;;;;;;;10.68;73.95;93233.19;5094913;28;20016;-34
2022/09/13 00:32:51;;;;;;;5.60;4.57;;;;;;;10.70;73.82;93236.13;5094445;28;20479;-34
2022/09/13 00:35:16;;;;;;;5.10;4.60;;;;;;;10.62;73.14;93234.13;5094751;28;20039;-34
2022/09/13 00:37:42;;;;;;;4.90;4.40;;;;;;;10.54;73.38;93221.59;5094453;28;20024;-34
2022/09/13 00:40:08;;;;;;;5.97;4.57;;;;;;;10.57;73.42;93226.75;5094342;28;20067;-34
2022/09/13 00:42:34;;;;;;;6.97;5.30;;;;;;;10.58;73.82;93224.72;5076217;28;20028;-34
2022/09/13 00:45:05;;;;;;;6.40;4.80;;;;;;;10.43;74.27;93228.25;5094370;28;20098;-34
2022/09/13 00:47:52;;;;;;;5.03;4.25;;;;;;;10.45;74.18;93231.19;5094312;28;20491;-34
2022/09/13 00:50:31;;;;;;;4.00;3.40;;;;;;;10.41;74.43;93230.81;5094446;28;20477;-34
2022/09/13 00:53:32;;;;;;;5.25;3.95;;;;;;;10.16;74.97;93224.38;5094020;28;20035;-34
2022/09/13 00:56:02;;;;;;;5.65;4.65;;;;;;;10.18;75.25;93223.84;5065788;28;20534;-34
2022/09/13 00:58:34;;;;;;;4.70;4.07;;;;;;;9.99;76.41;93217.91;5055815;28;20091;-34
2022/09/13 01:01:01;;;;;;;7.57;4.78;;;;;;;10.20;75.49;93221.25;5055762;28;20514;-34
2022/09/13 01:03:29;;;;;;;6.32;4.88;;;;;;;10.22;75.05;93222.16;5073917;28;20059;-34
2022/09/13 01:06:12;;;;;;;5.32;4.22;;;;;;;10.24;73.63;93214.09;5073751;28;20028;-34
2022/09/13 01:08:39;;;;;;;6.88;4.10;;;;;;;10.23;73.12;93212.59;5055846;28;20032;-34
2022/09/13 01:11:06;;;;;;;4.82;4.28;;;;;;;10.05;74.30;93215.72;5073472;28;20111;-34
2022/09/13 01:13:33;;;;;;;4.35;3.90;;;;;;;10.04;74.23;93222.50;5055937;28;20101;-34
2022/09/13 01:15:59;;;;;;;4.95;3.85;;;;;;;10.08;74.54;93217.34;5073587;28;20059;-34
2022/09/13 01:18:25;;;;;;;3.72;3.35;;;;;;;10.04;74.91;93217.00;5073359;28;20036;-34
2022/09/13 01:21:09;;;;;;;4.68;3.85;;;;;;;10.09;74.75;93205.75;5073159;28;20115;-34
2022/09/13 01:23:37;;;;;;;5.30;3.72;;;;;;;9.85;75.66;93206.31;5073362;28;20051;-34
2022/09/13 01:26:40;;;;;;;4.57;3.85;;;;;;;9.68;76.83;93189.56;5083725;28;20032;-34
2022/09/13 01:29:40;;;;;;;3.53;3.22;;;;;;;9.84;75.80;93202.81;5079759;28;20103;-34
2022/09/13 01:32:49;;;;;;;4.75;4.15;;;;;;;9.86;75.36;93210.53;5073396;28;20020;-34
2022/09/13 01:35:27;;;;;;;;;;;;;;;9.78;74.18;93199.50;5073745;28;20029;-35
2022/09/13 01:38:18;;;;;;;4.60;4.03;;;;;;;9.77;75.08;93205.56;5055276;28;19939;-34
2022/09/13 01:41:21;;;;;;;6.13;3.65;;;;;;;9.51;76.21;93200.34;5072113;28;20067;-34
2022/09/13 01:44:18;;;;;;;4.28;3.67;;;;;;;9.62;75.73;93197.25;5072888;28;20507;-34
2022/09/13 01:46:53;;;;;;;5.03;3.95;;;;;;;9.59;75.86;93193.59;5072897;28;20028;-34
2022/09/13 01:49:47;;;;;;;4.80;3.65;;;;;;;9.62;75.99;93200.00;5072939;28;20535;-34
2022/09/13 01:52:25;;;;;;;5.20;4.20;;;;;;;9.69;76.46;93194.53;5063816;28;20111;-34
2022/09/13 01:55:06;;;;;;;6.22;4.82;;;;;;;9.61;76.24;93204.81;5072732;28;20063;-34
2022/09/13 01:57:56;;;;;;;11.68;4.65;;;;;;;9.75;76.50;93203.34;5072959;28;20025;-34
2022/09/13 02:00:22;;;;;;;5.03;3.78;;;;;;;9.69;77.34;93204.81;5054589;28;20055;-34
2022/09/13 02:02:50;;;;;;;7.07;4.07;;;;;;;9.77;77.42;93205.56;5072659;28;20036;-34
2022/09/13 02:05:16;;;;;;;4.40;3.35;;;;;;;9.82;76.21;93196.38;5072882;28;20412;-34
2022/09/13 02:07:43;;;;;;;3.83;3.42;;;;;;;9.85;75.75;93192.53;5073090;28;20038;-34
2022/09/13 02:10:13;;;;;;;4.78;3.78;;;;;;;9.80;76.18;93193.44;5054532;28;20111;-34
2022/09/13 02:12:41;;;;;;;3.38;3.08;;;;;;;10.01;75.39;93198.78;5054906;28;20158;-34
2022/09/13 02:15:16;;;;;;;4.97;3.90;;;;;;;9.99;75.72;93202.09;5054485;28;20054;-34
2022/09/13 02:17:49;;;;;;;3.78;3.38;;;;;;;9.97;75.42;93168.81;5054473;28;20059;-34
2022/09/13 02:20:42;;;;;;;4.38;3.60;;;;;;;10.09;76.06;93191.25;5054354;28;20089;-34
2022/09/13 02:23:12;;;;;;;5.45;4.65;;;;;;;9.99;76.90;93182.03;5068188;28;20499;-34
2022/09/13 02:25:39;;;;;;;4.28;3.40;;;;;;;10.08;76.96;93182.25;5053775;28;20080;-34
2022/09/13 02:28:08;;;;;;;5.82;4.70;;;;;;;10.02;77.91;93184.44;5059544;28;20023;-34
2022/09/13 02:30:39;;;;;;;4.75;4.22;;;;;;;10.09;77.68;93186.44;5074547;28;20028;-34
2022/09/13 02:33:11;;;;;;;5.78;4.25;;;;;;;10.01;78.12;93169.19;5074385;28;20035;-34
2022/09/13 02:35:42;;;;;;;6.22;4.45;;;;;;;10.13;77.80;93170.31;5074455;28;20028;-34
2022/09/13 02:38:21;;;;;;;5.05;4.55;;;;;;;10.17;78.25;93175.47;5074377;28;20503;-34
2022/09/13 02:40:52;;;;;;;4.03;3.65;;;;;;;10.35;77.73;93188.16;5092275;28;20055;-34
2022/09/13 02:43:30;;;;;;;4.78;4.28;;;;;;;10.29;77.51;93187.56;5074065;28;20130;-34
2022/09/13 02:46:23;;;;;;;4.35;3.80;;;;;;;10.41;77.01;93175.63;5091923;28;20507;-34
2022/09/13 02:48:59;;;;;;;4.57;4.07;;;;;;;10.36;77.74;93181.31;5043186;28;20075;-34
2022/09/13 02:51:52;;;;;;;5.55;4.57;;;;;;;10.30;76.99;93178.03;5071664;28;20029;-34
2022/09/13 02:54:24;;;;;;;4.93;3.92;;;;;;;10.20;76.43;93179.88;5044558;28;20048;-34
2022/09/13 02:57:17;;;;;;;4.43;3.45;;;;;;;10.03;76.50;93188.66;5091794;28;20512;-34
2022/09/13 02:59:45;;;;;;;5.60;4.25;;;;;;;10.07;75.84;93178.00;5073585;28;20123;-34
2022/09/13 03:02:13;;;;;;;4.57;3.45;;;;;;;10.13;75.96;93180.63;5091464;28;20487;-34
2022/09/13 03:04:38;;;;;;;5.38;4.13;;;;;;;10.14;76.08;93179.31;5073820;28;20027;-34
2022/09/13 03:07:09;;;;;;;3.80;3.38;;;;;;;10.16;76.36;93185.75;5091483;28;20036;-34
2022/09/13 03:09:35;;;;;;;6.18;4.38;;;;;;;10.13;76.26;93189.63;5091846;28;20048;-34
2022/09/13 03:12:12;;;;;;;3.85;3.47;;;;;;;10.06;76.47;93182.06;5091764;28;20016;-34
2022/09/13 03:14:59;;;;;;;4.13;3.75;;;;;;;10.09;76.16;93191.25;5091564;28;20028;-34
2022/09/13 03:17:34;;;;;;;5.30;4.63;;;;;;;10.09;76.12;93194.00;5091480;28;20514;-34
2022/09/13 03:20:10;;;;;;;4.03;3.63;;;;;;;9.89;76.49;93174.34;5091544;28;20457;-34
2022/09/13 03:23:09;;;;;;;5.05;4.32;;;;;;;9.96;76.42;93194.19;5091563;28;20447;-34
2022/09/13 03:25:56;;;;;;;8.02;4.72;;;;;;;9.90;76.46;93200.63;5083360;28;20028;-34
2022/09/13 03:28:46;;;;;;;5.00;4.22;;;;;;;9.89;76.58;93199.16;5078255;28;20023;-34
2022/09/13 03:31:19;;;;;;;4.90;4.18;;;;;;;9.79;76.79;93194.72;5091105;28;20122;-34
2022/09/13 03:34:12;;;;;;;4.53;4.07;;;;;;;9.78;76.19;93202.25;5073293;28;20388;-34
2022/09/13 03:36:45;;;;;;;5.28;4.10;;;;;;;9.85;75.88;93198.06;5073317;28;20050;-35
2022/09/13 03:39:35;;;;;;;6.25;3.55;;;;;;;9.89;75.50;93204.69;5072959;28;20032;-34
2022/09/13 03:42:07;;;;;;;5.32;4.30;;;;;;;9.80;76.03;93207.22;5090840;28;20034;-34
2022/09/13 03:44:34;;;;;;;4.18;3.28;;;;;;;9.73;76.51;93205.19;5064084;28;20109;-34
2022/09/13 03:47:01;;;;;;;6.00;4.55;;;;;;;9.72;76.37;93206.47;5052912;28;20021;-34
2022/09/13 03:49:28;;;;;;;4.55;3.45;;;;;;;9.65;77.01;93207.94;5052868;28;20484;-34
2022/09/13 03:51:54;;;;;;;7.93;4.43;;;;;;;9.64;76.48;93195.44;5053052;28;20028;-34
2022/09/13 03:54:31;;;;;;;4.47;3.88;;;;;;;9.62;77.82;93205.53;5089724;28;20464;-34
2022/09/13 03:57:14;;;;;;;4.20;3.80;;;;;;;9.64;77.14;93208.47;5090722;28;20483;-34
2022/09/13 03:59:46;;;;;;;6.68;4.85;;;;;;;9.64;76.68;93195.44;5090633;28;20610;-34
2022/09/13 04:02:11;;;;;;;7.53;4.68;;;;;;;9.69;76.47;93213.09;5090634;28;20036;-35
2022/09/13 04:04:41;;;;;;;4.78;4.03;;;;;;;9.52;76.76;93196.34;5090326;28;20737;-34
2022/09/13 04:07:08;;;;;;;6.72;4.30;;;;;;;9.55;76.99;93220.06;5090862;28;20384;-34
2022/09/13 04:09:34;;;;;;;6.25;4.70;;;;;;;9.57;76.50;93211.97;5090531;28;20020;-34
2022/09/13 04:11:59;;;;;;;4.43;4.03;;;;;;;9.66;76.21;93211.41;5090583;28;20590;-34
2022/09/13 04:14:25;;;;;;;5.82;4.60;;;;;;;9.44;76.55;93214.88;5090522;28;20027;-34
2022/09/13 04:16:55;;;;;;;5.25;4.40;;;;;;;9.47;77.37;93227.53;5090661;28;20028;-34
2022/09/13 04:19:22;;;;;;;5.30;3.97;;;;;;;9.53;76.23;93230.88;5090458;28;20024;-34
2022/09/13 04:21:49;;;;;;;4.45;3.95;;;;;;;9.54;76.09;93222.06;5090244;28;20119;-34
2022/09/13 04:24:15;;;;;;;4.20;3.80;;;;;;;9.45;76.64;93216.31;5090318;28;20016;-34
2022/09/13 04:26:40;;;;;;;7.28;4.85;;;;;;;9.49;76.69;93230.47;5073239;28;20074;-34
2022/09/13 04:29:06;;;;;;;7.50;5.03;;;;;;;9.48;76.26;93223.50;5083765;28;20028;-34
2022/09/13 04:31:31;;;;;;;4.97;4.30;;;;;;;9.40;77.04;93222.75;5090382;28;20032;-34
2022/09/13 04:33:58;;;;;;;6.88;4.90;;;;;;;9.53;77.68;93225.38;5090623;28;20397;-34
2022/09/13 04:36:24;;;;;;;6.13;4.78;;;;;;;9.67;78.07;93224.66;5090309;28;20020;-34
2022/09/13 04:38:49;;;;;;;5.65;4.75;;;;;;;9.65;77.56;93230.00;5090487;28;20039;-34
2022/09/13 04:41:16;;;;;;;6.22;4.72;;;;;;;9.58;77.48;93229.97;5090123;28;20496;-34
2022/09/13 04:43:41;;;;;;;6.03;4.30;;;;;;;9.62;77.63;93225.56;5090416;28;20024;-35
2022/09/13 04:46:07;;;;;;;5.60;4.50;;;;;;;9.63;77.64;93238.06;5090456;28;20027;-34
2022/09/13 04:48:33;;;;;;;6.82;4.90;;;;;;;9.75;77.54;93235.69;5090146;28;20054;-34
2022/09/13 04:51:03;;;;;;;5.18;4.10;;;;;;;9.73;77.55;93236.25;5090089;28;20024;-34
2022/09/13 04:53:29;;;;;;;5.93;4.50;;;;;;;9.82;78.71;93237.75;5078594;28;20060;-34
2022/09/13 04:56:02;;;;;;;7.95;5.00;;;;;;;9.87;78.61;93229.28;5069922;28;20139;-34
2022/09/13 04:58:27;;;;;;;7.20;5.10;;;;;;;9.78;78.19;93212.56;5070085;28;20052;-35
2022/09/13 05:00:55;;;;;;;5.88;4.78;;;;;;;9.96;78.10;93241.81;5069739;28;20056;-34
2022/09/13 05:03:21;;;;;;;6.00;4.95;;;;;;;9.93;77.75;93242.91;5069776;28;20107;-34
2022/09/13 05:05:47;;;;;;;7.05;4.70;;;;;;;10.00;77.45;93246.97;5070177;28;20024;-35
2022/09/13 05:08:12;;;;;;;11.93;9.40;;;;;;;10.10;77.00;93245.13;5051819;28;20098;-34
2022/09/13 05:10:38;;;;;;;13.48;8.65;;;;;;;10.08;77.55;93253.22;5069697;28;20021;-34
2022/09/13 05:13:03;;;;;;;9.45;5.50;;;;;;;10.11;78.34;93247.38;5069726;28;20024;-34
2022/09/13 05:15:29;;;;;;;5.70;4.55;;;;;;;10.14;78.45;93246.25;5072715;28;20039;-34
2022/09/13 05:17:54;;;;;;;5.00;4.38;;;;;;;10.24;78.99;93251.97;5073412;28;20066;-34
2022/09/13 05:20:20;;;;;;;5.57;4.43;;;;;;;10.13;79.64;93233.78;5073317;28;20024;-34
2022/09/13 05:22:45;;;;;;;5.40;4.50;;;;;;;10.20;79.87;93246.81;5073297;28;20098;-34
2022/09/13 05:25:11;;;;;;;5.30;4.78;;;;;;;10.34;80.10;93237.06;5072966;28;20373;-35
2022/09/13 05:27:36;;;;;;;9.20;7.07;;;;;;;10.48;80.46;93238.34;5056454;28;20427;-34
2022/09/13 05:30:02;;;;;;;14.60;13.43;;;;;;;10.59;80.84;93240.00;5093478;28;20430;-34
2022/09/13 05:32:30;;;;;;;5.28;4.40;;;;;;;10.81;80.66;93239.22;5093718;28;20038;-34
2022/09/13 05:34:55;;;;;;;5.18;4.20;;;;;;;11.02;80.23;93239.72;5093360;28;20032;-34
2022/09/13 05:37:21;;;;;;;6.25;4.30;;;;;;;11.20;80.14;93233.03;5093293;28;20042;-34
2022/09/13 05:39:46;;;;;;;5.65;4.38;;;;;;;11.32;79.79;93239.66;5093275;28;20520;-34
2022/09/13 05:42:12;;;;;;;6.57;5.80;;;;;;;11.52;79.46;93237.88;5093146;28;20031;-34
2022/09/13 05:44:37;;;;;;;11.05;7.03;;;;;;;11.60;78.96;93238.59;5093220;28;20033;-34
2022/09/13 05:47:03;;;;;;;8.75;7.15;;;;;;;11.68;79.28;93233.78;5093063;28;20573;-34
2022/09/13 05:49:28;;;;;;;7.93;6.72;;;;;;;11.72;78.93;93242.44;5093477;28;20609;-34
2022/09/13 05:51:54;;;;;;;9.18;6.20;;;;;;;11.74;79.55;93244.63;5093015;28;20411;-34
2022/09/13 05:54:19;;;;;;;12.27;7.00;;;;;;;11.84;79.27;93246.25;5074126;28;20020;-34
2022/09/13 05:56:45;;;;;;;7.70;6.60;;;;;;;11.84;79.57;93251.78;5072645;28;20086;-34
2022/09/13 05:59:12;;;;;;;9.93;7.13;;;;;;;11.86;79.97;93243.66;5072491;28;20128;-35
2022/09/13 06:01:38;;;;;;;8.90;6.88;;;;;;;12.00;80.19;93246.88;5072585;28;20526;-34
2022/09/13 06:04:03;;;;;;;9.10;6.95;;;;;;;12.16;79.62;93245.50;5072532;28;20048;-34
2022/09/13 06:06:29;;;;;;;8.90;5.80;;;;;;;12.23;79.23;93235.66;5072526;28;20039;-34
2022/09/13 06:08:55;;;;;;;7.97;6.05;;;;;;;12.32;78.60;93237.81;5072456;28;20032;-34
2022/09/13 06:11:21;;;;;;;8.70;5.80;;;;;;;12.34;78.30;93237.97;5072420;28;20027;-34
2022/09/13 06:13:47;;;;;;;10.07;6.57;;;;;;;12.31;78.79;93239.09;5072453;28;20056;-34
2022/09/13 06:16:14;;;;;;;7.00;5.93;;;;;;;12.40;79.21;93241.25;5072598;28;20082;-34
2022/09/13 06:18:40;;;;;;;7.57;5.30;;;;;;;12.57;78.77;93246.84;5072403;28;20032;-34
2022/09/13 06:21:16;;;;;;;7.80;5.35;;;;;;;12.71;78.90;93245.97;5072180;28;20028;-34
2022/09/13 06:23:42;;;;;;;6.07;4.53;;;;;;;12.94;77.28;93243.72;5072379;28;20536;-35
2022/09/13 06:26:10;;;;;;;6.35;3.90;;;;;;;13.23;74.73;93244.00;5071031;28;20042;-35
2022/09/13 06:28:36;;;;;;;4.43;4.03;;;;;;;13.42;74.10;93246.94;5081472;28;20027;-34
2022/09/13 06:31:07;;;;;;;3.70;3.40;;;;;;;13.59;73.03;93255.25;5092259;28;20024;-34
2022/09/13 06:33:34;;;;;;;4.68;3.80;;;;;;;13.66;72.44;93248.84;5092217;28;20149;-34
2022/09/13 06:36:01;;;;;;;3.75;3.38;;;;;;;13.71;72.77;93255.47;5074242;28;20465;-34
2022/09/13 06:38:27;;;;;;;6.32;3.75;;;;;;;13.66;73.49;93262.72;5092339;28;20024;-34
2022/09/13 06:41:07;;;;;;;6.57;3.55;;;;;;;13.79;72.95;93258.16;5091887;28;20388;-34
2022/09/13 06:43:33;;;;;;;4.07;3.38;;;;;;;14.09;70.78;93254.97;5091987;28;20030;-35
2022/09/13 06:46:05;;;;;;;3.33;2.78;;;;;;;14.45;70.16;93257.78;5092276;28;20020;-35
2022/09/13 06:48:32;;;;;;;3.33;2.67;;;;;;;14.89;69.17;93263.94;5092270;28;20023;-35
2022/09/13 06:50:59;;;;;;;3.13;2.55;;;;;;;15.80;66.80;93270.63;5092225;28;20051;-35
2022/09/13 06:53:26;;;;;;;5.88;2.42;;;;;;;16.62;63.20;93268.13;5062621;28;20415;-35
2022/09/13 06:56:04;;;;;;;4.70;3.83;;;;;;;17.16;59.75;93268.28;5071614;28;20024;-35
2022/09/13 06:58:30;;;;;;;4.60;2.78;;;;;;;17.58;59.58;93258.50;5071626;28;20048;-35
2022/09/13 07:01:16;;;;;;;3.08;2.78;;;;;;;18.26;58.13;93274.03;5071699;28;20084;-35
2022/09/13 07:03:44;;;;;;;5.40;2.85;;;;;;;18.76;56.44;93262.47;5071685;28;20032;-35
2022/09/13 07:06:17;;;;;;;2.38;2.17;;;;;;;19.35;53.96;93273.06;5071511;28;20053;-35
2022/09/13 07:08:44;;;;;;;2.63;2.42;;;;;;;20.21;52.15;93276.59;5071343;28;20048;-35
2022/09/13 07:11:11;;;;;;;2.13;2.00;;;;;;;20.69;49.11;93270.84;5071241;28;20067;-35
2022/09/13 07:13:37;;;;;;;2.70;1.60;;;;;;;21.27;47.48;93269.72;5071523;28;20450;-35
2022/09/13 07:16:10;;;;;;;1.88;1.67;;;;;;;21.73;45.58;93280.50;5071076;28;20028;-35
2022/09/13 07:18:36;;;;;;;1.80;1.50;;;;;;;21.59;45.61;93277.69;5071128;28;20078;-35
2022/09/13 07:21:04;;;;;;;2.60;1.88;;;;;;;20.54;48.15;93279.13;5071357;28;20408;-36
2022/09/13 07:23:34;;;;;;;3.22;2.63;;;;;;;19.94;49.48;93285.59;5071348;28;20420;-35
2022/09/13 07:26:01;;;;;;;3.65;2.72;;;;;;;19.45;50.99;93276.47;5070495;28;20103;-35
2022/09/13 07:28:34;;;;;;;3.58;2.47;;;;;;;19.58;50.73;93284.22;5079015;28;20035;-34
2022/09/13 07:31:04;;;;;;;2.35;2.15;;;;;;;19.52;50.23;93288.75;5071257;28;20307;-35
2022/09/13 07:33:29;;;;;;;2.35;2.10;;;;;;;20.23;49.45;93283.06;5071088;28;20423;-35
2022/09/13 07:35:56;;;;;;;3.42;2.53;;;;;;;21.57;46.92;93291.63;5071125;28;20029;-35
2022/09/13 07:38:22;;;;;;;1.80;1.70;;;;;;;22.81;44.04;93273.06;5069877;28;20489;-35
2022/09/13 07:40:55;;;;;;;1.90;1.80;;;;;;;23.15;42.42;93283.81;5070859;28;20035;-35
2022/09/13 07:43:21;;;;;;;1.42;1.33;;;;;;;23.30;40.30;93282.38;5071043;28;20024;-35
2022/09/13 07:45:46;;;;;;;2.80;1.60;;;;;;;22.59;42.52;93287.56;5070863;28;20035;-35
2022/09/13 07:48:12;;;;;;;1.77;1.67;;;;;;;21.85;43.46;93290.28;5070911;28;20436;-35
2022/09/13 07:50:37;;;;;;;2.00;1.80;;;;;;;21.94;45.64;93294.22;5070873;28;20484;-35
2022/09/13 07:53:03;;;;;;;1.70;1.60;;;;;;;21.74;44.51;93296.00;5078660;28;20396;-35
2022/09/13 07:55:29;;;;;;;1.80;1.70;;;;;;;21.48;45.33;93309.47;5091036;28;20023;-35
2022/09/13 07:57:54;;;;;;;2.40;1.73;;;;;;;21.79;45.57;93294.84;5072701;28;20518;-35
2022/09/13 08:00:20;;;;;;;1.80;1.70;;;;;;;22.27;44.27;93299.34;5090445;28;20055;-35
2022/09/13 08:02:45;;;;;;;2.00;1.60;;;;;;;23.38;42.87;93287.66;5090875;28;20039;-35
2022/09/13 08:05:13;;;;;;;1.02;0.98;;;;;;;24.17;38.37;93278.38;5090634;28;20586;-35
2022/09/13 08:07:38;;;;;;;1.83;1.42;;;;;;;23.95;39.98;93285.91;5090912;28;20081;-35
2022/09/13 08:10:04;;;;;;;1.45;1.33;;;;;;;25.19;38.79;93283.81;5090453;28;20036;-35
2022/09/13 08:12:29;;;;;;;1.45;1.35;;;;;;;26.08;34.75;93282.06;5090588;28;20054;-35
2022/09/13 08:14:55;;;;;;;1.35;1.15;;;;;;;25.41;34.90;93282.53;5090671;28;20028;-36
2022/09/13 08:17:20;;;;;;;4.18;1.35;;;;;;;24.27;37.68;93278.81;5090417;28;20020;-35
2022/09/13 08:19:46;;;;;;;1.17;1.00;;;;;;;23.70;37.81;93280.59;5072704;28;20027;-35
2022/09/13 08:22:11;;;;;;;0.90;0.90;;;;;;;23.39;39.06;93278.53;5090235;28;20085;-35
2022/09/13 08:24:37;;;;;;;1.52;1.00;;;;;;;23.57;38.11;93279.34;5090640;28;20043;-35
2022/09/13 08:27:02;;;;;;;1.33;1.20;;;;;;;24.61;36.49;93280.16;5052733;28;20044;-35
2022/09/13 08:29:28;;;;;;;1.35;0.93;;;;;;;24.86;33.53;93279.06;5086969;28;20028;-35
2022/09/13 08:31:53;;;;;;;0.95;0.70;;;;;;;24.71;34.29;93288.31;5072291;28;20077;-35
2022/09/13 08:34:20;;;;;;;0.70;0.70;;;;;;;24.18;35.03;93293.22;5090870;28;20035;-35
2022/09/13 08:36:45;;;;;;;1.75;1.02;;;;;;;24.12;35.80;93295.78;5090201;28;20035;-35
2022/09/13 08:39:15;;;;;;;1.58;1.15;;;;;;;23.38;36.97;93288.38;5090237;28;20107;-35
2022/09/13 08:41:45;;;;;;;1.30;1.10;;;;;;;22.68;38.62;93288.69;5090400;28;20024;-35
2022/09/13 08:44:34;;;;;;;0.88;0.88;;;;;;;21.95;40.45;93292.88;5090650;28;20479;-35
2022/09/13 08:47:18;;;;;;;;;;;;;;;21.72;40.42;93295.91;5091014;28;20032;-35
2022/09/13 08:49:46;;;;;;;0.95;0.85;;;;;;;21.45;41.73;93285.41;5092521;28;20443;-35
2022/09/13 08:52:40;;;;;;;1.08;0.93;;;;;;;22.31;40.02;93283.38;5094142;28;20110;-35
2022/09/13 08:55:23;;;;;;;3.15;1.13;;;;;;;24.33;36.58;93272.66;5076506;28;20032;-35
2022/09/13 08:57:52;;;;;;;1.05;0.75;;;;;;;25.94;31.78;93278.75;5094073;28;20103;-35
2022/09/13 09:00:24;;;;;;;0.82;0.57;;;;;;;27.04;30.99;93279.56;5075890;28;20052;-35
2022/09/13 09:03:01;;;;;;;0.50;0.50;;;;;;;27.17;28.14;93280.66;5076654;28;20063;-35
2022/09/13 09:05:28;;;;;;;0.80;0.80;;;;;;;26.60;29.17;93283.09;5094029;28;20062;-35
2022/09/13 09:07:54;;;;;;;1.40;1.10;;;;;;;26.14;30.52;93287.97;5094025;28;20024;-35
2022/09/13 09:10:26;;;;;;;1.10;0.60;;;;;;;25.55;32.22;93285.88;5094231;28;20085;-35
2022/09/13 09:13:12;;;;;;;0.95;0.85;;;;;;;25.60;32.72;93281.09;5093961;28;20120;-35
2022/09/13 09:16:14;;;;;;;1.15;0.65;;;;;;;26.33;31.09;93289.28;5094321;28;20109;-35
2022/09/13 09:18:42;;;;;;;0.75;0.60;;;;;;;27.92;28.77;93292.03;5076018;28;20102;-36
2022/09/13 09:21:19;;;;;;;1.25;1.10;;;;;;;28.45;26.18;93283.53;5074454;28;20035;-35
2022/09/13 09:23:54;;;;;;;0.93;0.70;;;;;;;28.87;26.42;93286.69;5073322;28;20112;-36
2022/09/13 09:26:27;;;;;;;0.80;0.60;;;;;;;29.77;27.32;93285.16;5086287;28;20056;-36
2022/09/13 09:28:55;;;;;;;1.13;1.02;;;;;;;30.34;23.95;93275.56;5081575;28;20024;-36
2022/09/13 09:31:39;;;;;;;0.60;0.60;;;;;;;29.78;25.02;93272.34;5055400;28;20095;-35
2022/09/13 09:34:11;;;;;;;0.77;0.77;;;;;;;30.33;25.45;93267.69;5073049;28;20182;-36
2022/09/13 09:37:00;;;;;;;0.88;0.52;;;;;;;28.92;25.76;93265.50;5073539;28;20033;-35
2022/09/13 09:39:31;;;;;;;0.93;0.60;;;;;;;27.31;25.80;93269.72;5073040;28;20032;-35
2022/09/13 09:41:57;;;;;;;0.85;0.82;;;;;;;26.74;28.47;93272.97;5073011;28;20029;-35
2022/09/13 09:44:26;;;;;;;1.30;0.77;;;;;;;26.01;28.78;93266.28;5072962;28;20032;-35
2022/09/13 09:47:14;;;;;;;1.48;1.17;;;;;;;26.38;31.06;93259.75;5055365;28;20024;-35
2022/09/13 09:52:32;;;;;;;1.27;1.00;;;;;;;28.23;26.36;93239.63;5076367;28;20067;-35
2022/09/13 09:55:14;;;;;;;1.15;0.82;;;;;;;28.81;27.24;93235.38;5075012;28;20034;-35
2022/09/13 09:57:56;;;;;;;0.60;0.60;;;;;;;29.18;24.77;93240.50;5093053;28;20507;-35
2022/09/13 10:00:25;;;;;;;0.50;0.50;;;;;;;27.48;26.48;93242.59;5091996;28;20048;-35
2022/09/13 10:02:53;;;;;;;0.60;0.60;;;;;;;26.28;28.89;93252.38;5075002;28;20032;-35
2022/09/13 10:05:20;;;;;;;1.83;0.98;;;;;;;25.52;29.82;93247.63;5075182;28;20036;-35
2022/09/13 10:07:53;;;;;;;2.33;1.63;;;;;;;25.14;31.29;93240.56;5075081;28;20027;-35
2022/09/13 10:10:19;;;;;;;2.42;1.80;;;;;;;26.09;30.46;93232.63;5092843;28;20110;-35
2022/09/13 10:12:48;;;;;;;1.30;1.20;;;;;;;27.59;28.39;93241.50;5092691;28;20092;-35
2022/09/13 10:15:34;;;;;;;;;;;;;;;29.10;26.35;93225.38;5093063;28;20449;-35
2022/09/13 10:18:02;;;;;;;0.60;0.60;;;;;;;30.37;24.73;93227.88;5092173;28;20423;-36
2022/09/13 10:20:28;;;;;;;1.20;1.00;;;;;;;30.52;22.24;93226.72;5092423;28;20111;-36
2022/09/13 10:23:14;;;;;;;1.20;1.10;;;;;;;28.97;24.57;93235.03;5092480;28;20032;-35
2022/09/13 10:25:43;;;;;;;4.38;2.30;;;;;;;27.79;26.68;93225.72;5083962;28;20024;-35
2022/09/13 10:28:14;;;;;;;5.22;3.58;;;;;;;27.10;28.05;93224.44;5077685;28;20097;-35
2022/09/13 10:31:04;;;;;;;2.70;1.77;;;;;;;25.90;30.57;93233.38;5092416;28;20481;-35
2022/09/13 10:33:32;;;;;;;0.80;0.80;;;;;;;24.73;31.76;93229.09;5074659;28;20036;-35
2022/09/13 10:36:04;;;;;;;1.42;0.98;;;;;;;24.28;33.36;93231.56;5092197;28;20237;-35
2022/09/13 10:38:36;;;;;;;1.58;1.10;;;;;;;23.53;33.77;93234.09;5074522;28;20407;-35
2022/09/13 10:41:08;;;;;;;1.10;1.00;;;;;;;23.20;35.16;93228.38;5074318;28;20034;-35
2022/09/13 10:43:34;;;;;;;0.70;0.70;;;;;;;23.40;34.86;93231.38;5092120;28;20028;-35
2022/09/13 10:46:02;;;;;;;3.47;0.90;;;;;;;24.77;32.93;93215.16;5074287;28;20445;-35
2022/09/13 10:48:56;;;;;;;0.65;0.60;;;;;;;26.70;30.81;93219.00;5092238;28;20058;-35
2022/09/13 10:51:36;;;;;;;2.97;0.80;;;;;;;26.86;27.55;93198.97;5092029;28;20065;-35
2022/09/13 10:54:22;;;;;;;0.95;0.73;;;;;;;26.25;29.53;93207.66;5091790;28;20027;-35
2022/09/13 10:56:49;;;;;;;1.23;0.80;;;;;;;25.36;30.60;93207.44;5091437;28;20111;-35
2022/09/13 10:59:28;;;;;;;2.88;1.75;;;;;;;25.37;32.46;93206.06;5073652;28;20127;-35
2022/09/13 11:01:56;;;;;;;;;;;;;;;26.22;30.11;93206.16;5092193;28;20072;-35
2022/09/13 11:05:05;;;;;;;0.60;0.60;;;;;;;26.54;29.35;93200.78;5092039;28;20299;-35
2022/09/13 11:07:46;;;;;;;;;;;;;;;26.86;27.98;93188.34;5092524;28;20036;-36
2022/09/13 11:10:35;;;;;;;0.68;0.68;;;;;;;26.35;28.92;93198.78;5073868;28;19908;-36
2022/09/13 11:13:21;;;;;;;2.63;0.70;;;;;;;26.02;30.60;93199.81;5091462;28;20024;-35
2022/09/13 11:15:55;;;;;;;1.00;0.85;;;;;;;26.51;30.94;93196.47;5072295;28;20512;-35
2022/09/13 11:18:33;;;;;;;0.70;0.70;;;;;;;26.78;28.15;93202.28;5071194;28;20040;-35
2022/09/13 11:21:26;;;;;;;1.77;1.20;;;;;;;26.31;30.04;93199.38;5053509;28;20059;-36
2022/09/13 11:24:10;;;;;;;2.83;1.70;;;;;;;25.47;29.87;93192.31;5071125;28;20063;-35
2022/09/13 11:26:46;;;;;;;1.40;1.30;;;;;;;24.92;31.10;93191.72;5070770;28;20038;-35
2022/09/13 11:29:37;;;;;;;2.40;1.33;;;;;;;24.39;33.44;93188.25;5067606;28;20020;-35
2022/09/13 11:32:02;;;;;;;2.00;1.40;;;;;;;23.86;31.58;93188.97;5073354;28;20487;-35
2022/09/13 11:34:43;;;;;;;1.38;0.60;;;;;;;23.54;32.46;93190.44;5091177;28;20039;-35
2022/09/13 11:37:24;;;;;;;1.52;1.23;;;;;;;23.27;33.60;93193.50;5091178;28;20032;-35
2022/09/13 11:40:22;;;;;;;1.75;1.08;;;;;;;23.86;35.54;93194.63;5073061;28;20024;-35
2022/09/13 11:42:51;;;;;;;0.57;0.57;;;;;;;23.63;34.69;93189.41;5086981;28;20036;-35
2022/09/13 11:45:22;;;;;;;1.15;0.68;;;;;;;23.39;34.73;93187.69;5073022;28;20046;-35
2022/09/13 11:48:16;;;;;;;0.73;0.70;;;;;;;23.05;34.31;93178.44;5091194;28;20055;-35
2022/09/13 11:51:03;;;;;;;0.73;0.73;;;;;;;22.77;35.45;93185.63;5090914;28;20020;-35
2022/09/13 11:53:38;;;;;;;1.67;1.00;;;;;;;22.80;33.39;93182.28;5090786;28;20530;-34
2022/09/13 11:56:25;;;;;;;0.90;0.70;;;;;;;22.57;34.94;93185.41;5072737;28;20472;-35
2022/09/13 11:58:50;;;;;;;0.77;0.77;;;;;;;22.44;34.59;93184.16;5072622;28;20515;-35
2022/09/13 12:01:20;;;;;;;1.00;0.77;;;;;;;22.18;36.42;93182.94;5090988;28;20039;-35
2022/09/13 12:03:53;;;;;;;0.80;0.73;;;;;;;22.08;36.21;93184.53;5090567;28;20570;-35